createdAt,value
2019-04-13T00:00:05.582Z,0.00
2019-04-13T00:01:05.501Z,0.00
2019-04-13T00:02:05.418Z,0.00
2019-04-13T00:03:05.339Z,0.00
2019-04-13T00:04:05.255Z,0.00
2019-04-13T00:05:05.172Z,0.00
2019-04-13T00:06:05.091Z,0.00
2019-04-13T00:07:05.009Z,0.00
2019-04-13T00:08:04.927Z,0.00
2019-04-13T00:09:04.845Z,0.00
2019-04-13T00:10:04.763Z,0.00
2019-04-13T00:11:04.681Z,0.00
2019-04-13T00:12:04.599Z,0.00
2019-04-13T00:13:04.517Z,0.00
2019-04-13T00:14:04.436Z,0.00
2019-04-13T00:15:04.354Z,0.00
2019-04-13T00:16:04.272Z,0.00
2019-04-13T00:17:04.190Z,0.00
2019-04-13T00:18:04.108Z,0.00
2019-04-13T00:19:04.030Z,0.00
2019-04-13T00:20:03.953Z,0.00
2019-04-13T00:21:03.864Z,0.00
2019-04-13T00:22:03.782Z,0.00
2019-04-13T00:23:03.697Z,0.00
2019-04-13T00:24:03.771Z,0.00
2019-04-13T00:25:03.538Z,0.00
2019-04-13T00:26:03.456Z,0.00
2019-04-13T00:27:03.385Z,0.00
2019-04-13T00:28:03.287Z,0.00
2019-04-13T00:29:03.206Z,0.00
2019-04-13T00:30:03.123Z,0.00
2019-04-13T00:31:03.041Z,0.00
2019-04-13T00:32:02.958Z,0.00
2019-04-13T00:33:02.878Z,0.00
2019-04-13T00:34:02.795Z,0.00
2019-04-13T00:35:02.713Z,0.00
2019-04-13T00:36:02.633Z,0.00
2019-04-13T00:37:02.549Z,0.00
2019-04-13T00:38:02.467Z,0.00
2019-04-13T00:39:02.384Z,0.00
2019-04-13T00:40:02.334Z,0.00
2019-04-13T00:41:02.220Z,0.00
2019-04-13T00:42:02.137Z,0.00
2019-04-13T00:43:02.059Z,0.00
2019-04-13T00:44:01.978Z,0.00
2019-04-13T00:45:01.894Z,0.00
2019-04-13T00:46:01.810Z,0.00
2019-04-13T00:47:01.932Z,0.00
2019-04-13T00:48:01.648Z,0.00
2019-04-13T00:49:01.564Z,0.00
2019-04-13T00:50:01.480Z,0.00
2019-04-13T00:51:01.399Z,0.00
2019-04-13T00:52:01.518Z,0.00
2019-04-13T00:53:01.234Z,0.00
2019-04-13T00:54:01.152Z,0.00
2019-04-13T00:55:01.070Z,0.00
2019-04-13T00:56:00.988Z,0.00
2019-04-13T00:57:00.909Z,0.00
2019-04-13T00:58:00.823Z,0.00
2019-04-13T00:59:00.744Z,0.00
2019-04-13T01:00:00.658Z,0.00
2019-04-13T01:01:00.779Z,0.00
2019-04-13T01:02:00.505Z,0.00
2019-04-13T01:03:00.413Z,0.00
2019-04-13T01:04:00.328Z,0.00
2019-04-13T01:05:00.248Z,0.00
2019-04-13T01:06:00.217Z,0.00
2019-04-13T01:07:00.086Z,0.00
2019-04-13T01:08:00.002Z,0.00
2019-04-13T01:08:59.920Z,0.00
2019-04-13T01:09:59.837Z,0.00
2019-04-13T01:10:59.757Z,0.00
2019-04-13T01:11:59.673Z,0.00
2019-04-13T01:12:59.593Z,0.00
2019-04-13T01:13:59.508Z,0.00
2019-04-13T01:14:59.434Z,0.00
2019-04-13T01:15:59.351Z,0.00
2019-04-13T01:16:59.262Z,0.00
2019-04-13T01:17:59.181Z,0.00
2019-04-13T01:18:59.432Z,0.00
2019-04-13T01:19:59.022Z,0.00
2019-04-13T01:20:58.934Z,0.00
2019-04-13T01:21:58.850Z,0.00
2019-04-13T01:22:58.767Z,0.00
2019-04-13T01:23:58.687Z,0.00
2019-04-13T01:24:58.604Z,0.00
2019-04-13T01:25:58.521Z,0.00
2019-04-13T01:26:58.439Z,0.00
2019-04-13T01:27:58.356Z,0.00
2019-04-13T01:28:58.279Z,0.00
2019-04-13T01:29:58.192Z,0.00
2019-04-13T01:30:58.110Z,0.00
2019-04-13T01:31:58.033Z,0.00
2019-04-13T01:32:57.972Z,0.00
2019-04-13T01:33:57.891Z,0.00
2019-04-13T01:35:05.789Z,0.00
2019-04-13T01:35:57.747Z,0.00
2019-04-13T01:36:57.614Z,0.00
2019-04-13T01:37:57.531Z,0.00
2019-04-13T01:38:57.450Z,0.00
2019-04-13T01:39:57.367Z,0.00
2019-04-13T01:40:57.284Z,0.00
2019-04-13T01:42:57.118Z,0.00
2019-04-13T01:43:57.034Z,0.00
2019-04-13T01:44:56.951Z,0.00
2019-04-13T01:45:56.872Z,0.00
2019-04-13T01:46:56.788Z,0.00
2019-04-13T01:47:57.369Z,0.00
2019-04-13T01:48:56.652Z,0.00
2019-04-13T01:49:56.539Z,0.00
2019-04-13T01:50:56.458Z,0.00
2019-04-13T01:51:56.372Z,0.00
2019-04-13T01:52:56.290Z,0.00
2019-04-13T01:53:56.210Z,0.00
2019-04-13T01:54:56.126Z,0.00
2019-04-13T01:55:56.044Z,0.00
2019-04-13T01:56:55.961Z,0.00
2019-04-13T01:57:55.878Z,0.00
2019-04-13T01:58:55.796Z,0.00
2019-04-13T01:59:55.714Z,0.00
2019-04-13T02:00:55.631Z,0.00
2019-04-13T02:01:55.549Z,0.00
2019-04-13T02:02:55.565Z,0.00
2019-04-13T02:03:55.382Z,0.00
2019-04-13T02:04:55.301Z,0.00
2019-04-13T02:05:55.218Z,0.00
2019-04-13T02:06:55.135Z,0.00
2019-04-13T02:07:55.052Z,0.00
2019-04-13T02:08:54.970Z,0.00
2019-04-13T02:09:54.889Z,0.00
2019-04-13T02:10:54.811Z,0.00
2019-04-13T02:11:54.723Z,0.00
2019-04-13T02:12:54.641Z,0.00
2019-04-13T02:13:54.558Z,0.00
2019-04-13T02:14:54.481Z,0.00
2019-04-13T02:15:54.392Z,0.00
2019-04-13T02:16:54.315Z,0.00
2019-04-13T02:17:54.227Z,0.00
2019-04-13T02:18:54.145Z,0.00
2019-04-13T02:19:54.063Z,0.00
2019-04-13T02:20:53.983Z,0.00
2019-04-13T02:21:53.899Z,0.00
2019-04-13T02:22:53.816Z,0.00
2019-04-13T02:23:53.832Z,0.00
2019-04-13T02:24:53.652Z,0.00
2019-04-13T02:25:53.570Z,0.00
2019-04-13T02:26:53.487Z,0.00
2019-04-13T02:27:53.403Z,0.00
2019-04-13T02:28:53.321Z,0.00
2019-04-13T02:29:53.239Z,0.00
2019-04-13T02:30:53.156Z,0.00
2019-04-13T02:31:53.073Z,0.00
2019-04-13T02:32:52.991Z,0.00
2019-04-13T02:33:52.909Z,0.00
2019-04-13T02:34:52.826Z,0.00
2019-04-13T02:35:52.746Z,0.00
2019-04-13T02:36:52.664Z,0.00
2019-04-13T02:37:52.579Z,0.00
2019-04-13T02:38:52.598Z,0.00
2019-04-13T02:39:52.415Z,0.00
2019-04-13T02:40:52.334Z,0.00
2019-04-13T02:41:52.252Z,0.00
2019-04-13T02:42:52.167Z,0.00
2019-04-13T02:43:52.117Z,0.00
2019-04-13T02:44:52.051Z,0.00
2019-04-13T02:45:51.924Z,0.00
2019-04-13T02:46:51.838Z,0.00
2019-04-13T02:47:51.754Z,0.00
2019-04-13T02:48:51.673Z,0.00
2019-04-13T02:49:51.590Z,0.00
2019-04-13T02:50:51.509Z,0.00
2019-04-13T02:51:51.429Z,0.00
2019-04-13T02:52:51.343Z,0.00
2019-04-13T02:53:51.262Z,0.00
2019-04-13T02:54:51.178Z,0.00
2019-04-13T02:55:51.121Z,0.00
2019-04-13T02:56:51.012Z,0.00
2019-04-13T02:57:50.931Z,0.00
2019-04-13T02:58:50.848Z,0.00
2019-04-13T02:59:50.764Z,0.00
2019-04-13T03:00:50.733Z,0.00
2019-04-13T03:01:50.600Z,0.00
2019-04-13T03:02:50.520Z,0.00
2019-04-13T03:03:50.435Z,0.00
2019-04-13T03:04:50.352Z,0.00
2019-04-13T03:05:50.269Z,0.00
2019-04-13T03:06:50.195Z,0.00
2019-04-13T03:07:50.111Z,0.00
2019-04-13T03:08:50.022Z,0.00
2019-04-13T03:09:49.941Z,0.00
2019-04-13T03:10:49.857Z,0.00
2019-04-13T03:11:49.773Z,0.00
2019-04-13T03:12:49.700Z,0.00
2019-04-13T03:13:49.610Z,0.00
2019-04-13T03:14:49.527Z,0.00
2019-04-13T03:15:49.443Z,0.00
2019-04-13T03:16:49.411Z,0.00
2019-04-13T03:17:49.482Z,0.00
2019-04-13T03:18:49.195Z,0.00
2019-04-13T03:19:49.114Z,0.00
2019-04-13T03:20:49.031Z,0.00
2019-04-13T03:21:49.200Z,0.00
2019-04-13T03:22:48.866Z,0.00
2019-04-13T03:23:48.781Z,0.00
2019-04-13T03:24:48.699Z,0.00
2019-04-13T03:25:48.618Z,0.00
2019-04-13T03:26:48.535Z,0.00
2019-04-13T03:27:48.451Z,0.00
2019-04-13T03:28:48.393Z,0.00
2019-04-13T03:29:48.317Z,0.00
2019-04-13T03:30:50.115Z,0.00
2019-04-13T03:31:48.222Z,0.00
2019-04-13T03:32:48.038Z,0.00
2019-04-13T03:33:47.954Z,0.00
2019-04-13T03:34:47.871Z,0.00
2019-04-13T03:35:58.847Z,0.00
2019-04-13T03:36:47.706Z,0.00
2019-04-13T03:37:47.623Z,0.00
2019-04-13T03:38:47.545Z,0.00
2019-04-13T03:39:47.458Z,0.00
2019-04-13T03:40:47.376Z,0.00
2019-04-13T03:41:47.391Z,0.00
2019-04-13T03:42:47.209Z,0.00
2019-04-13T03:43:47.125Z,0.00
2019-04-13T03:44:47.042Z,0.00
2019-04-13T03:45:46.961Z,0.00
2019-04-13T03:46:46.979Z,0.00
2019-04-13T03:47:46.796Z,0.00
2019-04-13T03:48:46.712Z,0.00
2019-04-13T03:49:46.629Z,0.00
2019-04-13T03:50:46.547Z,0.00
2019-04-13T03:51:46.464Z,0.00
2019-04-13T03:52:46.382Z,0.00
2019-04-13T03:53:46.302Z,0.00
2019-04-13T03:54:46.217Z,0.00
2019-04-13T03:55:46.134Z,0.00
2019-04-13T03:56:46.050Z,0.00
2019-04-13T03:57:45.968Z,0.00
2019-04-13T03:58:45.886Z,0.00
2019-04-13T03:59:45.802Z,0.00
2019-04-13T04:00:45.720Z,0.00
2019-04-13T04:01:45.695Z,0.00
2019-04-13T04:02:45.605Z,0.00
2019-04-13T04:03:45.470Z,0.00
2019-04-13T04:04:45.386Z,0.00
2019-04-13T04:05:45.306Z,0.00
2019-04-13T04:06:45.272Z,0.00
2019-04-13T04:07:45.138Z,0.00
2019-04-13T04:08:45.056Z,0.00
2019-04-13T04:09:44.973Z,0.00
2019-04-13T04:10:44.891Z,0.00
2019-04-13T04:11:44.809Z,4.00
2019-04-13T04:12:44.724Z,4.00
2019-04-13T04:13:44.643Z,0.00
2019-04-13T04:14:44.566Z,4.00
2019-04-13T04:15:44.476Z,4.00
2019-04-13T04:16:44.392Z,0.00
2019-04-13T04:17:44.310Z,4.00
2019-04-13T04:18:44.228Z,4.00
2019-04-13T04:19:44.143Z,4.00
2019-04-13T04:20:44.063Z,4.00
2019-04-13T04:21:43.978Z,8.00
2019-04-13T04:22:43.898Z,8.00
2019-04-13T04:23:43.816Z,8.00
2019-04-13T04:24:43.730Z,12.00
2019-04-13T04:25:43.656Z,12.00
2019-04-13T04:26:43.564Z,12.00
2019-04-13T04:27:43.482Z,12.00
2019-04-13T04:28:43.397Z,16.00
2019-04-13T04:29:43.315Z,16.00
2019-04-13T04:30:43.232Z,16.00
2019-04-13T04:31:43.150Z,20.00
2019-04-13T04:32:43.065Z,24.00
2019-04-13T04:33:42.984Z,28.00
2019-04-13T04:34:42.902Z,28.00
2019-04-13T04:35:42.817Z,32.00
2019-04-13T07:30:52.099Z,3652.00
2019-04-13T07:34:52.374Z,3764.00
2019-04-13T09:45:40.719Z,6868.00
2019-04-13T09:46:40.638Z,6740.00
2019-04-13T09:47:42.289Z,6716.00
2019-04-13T09:48:40.484Z,7276.00
2019-04-13T09:49:40.391Z,7256.00
2019-04-13T09:50:40.309Z,7224.00
2019-04-13T09:51:40.231Z,6996.00
2019-04-13T09:52:40.147Z,6808.00
2019-04-13T09:53:40.064Z,6764.00
2019-04-13T09:54:40.802Z,6660.00
2019-04-13T09:55:39.902Z,6952.00
2019-04-13T09:56:39.821Z,7216.00
2019-04-13T09:57:39.738Z,7380.00
2019-04-13T09:58:39.658Z,7420.00
2019-04-13T09:59:39.576Z,7296.00
2019-04-13T10:00:39.496Z,7156.00
2019-04-13T10:01:39.412Z,6884.00
2019-04-13T10:02:39.336Z,6672.00
2019-04-13T10:42:38.388Z,5208.00
2019-04-13T10:43:36.216Z,5420.00
2019-04-13T10:53:35.369Z,6452.00
2019-04-13T11:21:21.738Z,7660.00
2019-04-13T11:51:06.141Z,9896.00
2019-04-13T11:52:06.068Z,10164.00
2019-04-13T11:53:05.981Z,10660.00
2019-04-13T11:54:05.899Z,10960.00
2019-04-13T11:55:05.823Z,11256.00
2019-04-13T11:56:05.926Z,11556.00
2019-04-13T11:57:05.657Z,11744.00
2019-04-13T11:58:05.577Z,12152.00
2019-04-13T11:59:05.498Z,12460.00
2019-04-13T12:00:05.418Z,12404.00
2019-04-13T12:01:06.999Z,11808.00
2019-04-13T12:02:05.257Z,11096.00
2019-04-13T12:03:05.177Z,10576.00
2019-04-13T12:04:05.097Z,10288.00
2019-04-13T12:05:05.017Z,10028.00
2019-04-13T12:06:05.589Z,9988.00
2019-04-13T12:07:04.855Z,9976.00
2019-04-13T12:08:04.779Z,9872.00
2019-04-13T12:09:04.697Z,9772.00
2019-04-13T12:10:04.627Z,9840.00
2019-04-13T12:11:04.537Z,9912.00
2019-04-13T12:12:04.460Z,10004.00
2019-04-13T12:13:04.383Z,10080.00
2019-04-13T12:14:04.297Z,10248.00
2019-04-13T12:15:06.775Z,10456.00
2019-04-13T12:16:04.142Z,10380.00
2019-04-13T12:17:04.058Z,10360.00
2019-04-13T12:18:03.979Z,9968.00
2019-04-13T12:19:03.902Z,9508.00
2019-04-13T12:20:03.818Z,9080.00
2019-04-13T12:21:03.739Z,8756.00
2019-04-13T12:22:03.664Z,8680.00
2019-04-13T12:23:03.795Z,8828.00
2019-04-13T12:24:03.501Z,9072.00
2019-04-13T12:25:03.421Z,9456.00
2019-04-13T12:26:03.343Z,10132.00
2019-04-13T12:27:03.268Z,10908.00
2019-04-13T12:28:03.185Z,11464.00
2019-04-13T12:29:03.103Z,11916.00
2019-04-13T12:30:03.025Z,12220.00
2019-04-13T12:31:02.964Z,12124.00
2019-04-13T12:32:02.867Z,12056.00
2019-04-13T12:33:02.789Z,12204.00
2019-04-13T12:34:03.278Z,12776.00
2019-04-13T12:35:07.423Z,13520.00
2019-04-13T12:36:02.551Z,14056.00
2019-04-13T12:37:03.696Z,14840.00
2019-04-13T12:38:04.013Z,16096.00
2019-04-13T12:39:02.321Z,17216.00
2019-04-13T12:40:03.691Z,18816.00
2019-04-13T12:41:02.155Z,19520.00
2019-04-13T12:42:02.076Z,20160.00
2019-04-13T12:43:02.001Z,21312.00
2019-04-13T12:44:02.256Z,20832.00
2019-04-13T12:45:01.841Z,20992.00
2019-04-13T12:46:01.865Z,21760.00
2019-04-13T12:47:01.686Z,22272.00
2019-04-13T12:48:01.608Z,19936.00
2019-04-13T12:49:01.538Z,18848.00
2019-04-13T12:50:01.457Z,17504.00
2019-04-13T12:51:01.375Z,16384.00
2019-04-13T12:52:01.300Z,15712.00
2019-04-13T12:53:01.221Z,15776.00
2019-04-13T12:54:04.596Z,16448.00
2019-04-13T12:55:01.068Z,17600.00
2019-04-13T12:56:00.992Z,19008.00
2019-04-13T12:57:00.918Z,20320.00
2019-04-13T12:58:00.837Z,21824.00
2019-04-13T12:59:00.762Z,22560.00
2019-04-13T13:00:01.473Z,20320.00
2019-04-13T13:01:00.608Z,18752.00
2019-04-13T13:02:00.533Z,17888.00
2019-04-13T13:03:00.454Z,16768.00
2019-04-13T13:04:00.379Z,16000.00
2019-04-13T13:05:00.306Z,14940.00
2019-04-13T13:06:00.428Z,13848.00
2019-04-13T13:07:00.150Z,13208.00
2019-04-13T13:08:00.074Z,13720.00
2019-04-13T13:09:01.464Z,14788.00
2019-04-13T13:09:59.919Z,15068.00
2019-04-13T13:10:59.896Z,14948.00
2019-04-13T13:11:59.766Z,15044.00
2019-04-13T13:12:59.689Z,15076.00
2019-04-13T13:13:59.612Z,14820.00
2019-04-13T13:14:59.537Z,14344.00
2019-04-13T13:15:59.459Z,13568.00
2019-04-13T13:16:59.382Z,13080.00
2019-04-13T13:17:59.314Z,12756.00
2019-04-13T13:19:00.721Z,12376.00
2019-04-13T13:19:59.152Z,12412.00
2019-04-13T13:20:59.075Z,12616.00
2019-04-13T13:21:58.999Z,12708.00
2019-04-13T13:22:58.921Z,12904.00
2019-04-13T13:23:58.845Z,12896.00
2019-04-13T13:24:58.768Z,12824.00
2019-04-13T13:25:58.693Z,12404.00
2019-04-13T13:27:01.879Z,11564.00
2019-04-13T13:27:58.539Z,10628.00
2019-04-13T13:28:58.460Z,9760.00
2019-04-13T13:29:58.382Z,9100.00
2019-04-13T13:30:58.305Z,8664.00
2019-04-13T13:31:58.232Z,8280.00
2019-04-13T13:32:59.137Z,7980.00
2019-04-13T13:33:58.076Z,7748.00
2019-04-13T13:35:00.857Z,7600.00
2019-04-13T13:35:57.919Z,7448.00
2019-04-13T13:36:57.841Z,7156.00
2019-04-13T13:37:57.764Z,7000.00
2019-04-13T13:38:57.686Z,7116.00
2019-04-13T13:39:57.611Z,7328.00
2019-04-13T13:40:57.531Z,7916.00
2019-04-13T13:41:57.454Z,8552.00
2019-04-13T13:42:57.402Z,9012.00
2019-04-13T13:43:57.298Z,9092.00
2019-04-13T13:44:57.219Z,8580.00
2019-04-13T13:45:57.143Z,7924.00
2019-04-13T13:46:57.064Z,7192.00
2019-04-13T13:47:56.987Z,6660.00
2019-04-13T13:48:57.007Z,6468.00
2019-04-13T13:49:56.830Z,6520.00
2019-04-13T13:50:56.751Z,6488.00
2019-04-13T13:52:01.229Z,6344.00
2019-04-13T13:52:56.596Z,6108.00
2019-04-13T13:53:56.514Z,5900.00
2019-04-13T13:54:56.436Z,5708.00
2019-04-13T13:55:56.357Z,5660.00
2019-04-13T13:56:56.277Z,5684.00
2019-04-13T13:57:56.205Z,5652.00
2019-04-13T13:58:56.120Z,5432.00
2019-04-13T13:59:56.043Z,5028.00
2019-04-13T14:00:55.962Z,4864.00
2019-04-13T14:01:55.884Z,4704.00
2019-04-13T14:02:55.804Z,4500.00
2019-04-13T14:03:55.728Z,4448.00
2019-04-13T14:04:58.356Z,4360.00
2019-04-13T14:05:55.567Z,4444.00
2019-04-13T14:06:55.491Z,4504.00
2019-04-13T14:07:55.410Z,4420.00
2019-04-13T14:08:55.330Z,4336.00
2019-04-13T14:09:55.251Z,4276.00
2019-04-13T14:10:55.172Z,4176.00
2019-04-13T14:11:55.094Z,4004.00
2019-04-13T14:12:55.013Z,3812.00
2019-04-13T14:13:54.934Z,3644.00
2019-04-13T14:14:54.857Z,3512.00
2019-04-13T14:15:54.777Z,3416.00
2019-04-13T14:16:54.695Z,3436.00
2019-04-13T14:17:55.578Z,3376.00
2019-04-13T14:18:57.434Z,3320.00
2019-04-13T14:19:54.508Z,3284.00
2019-04-13T14:20:54.381Z,3344.00
2019-04-13T14:21:54.299Z,3476.00
2019-04-13T14:22:54.219Z,3612.00
2019-04-13T14:23:54.141Z,3680.00
2019-04-13T14:24:54.060Z,3628.00
2019-04-13T14:25:53.981Z,3656.00
2019-04-13T14:26:53.904Z,3640.00
2019-04-13T14:27:53.828Z,3540.00
2019-04-13T14:28:53.742Z,3564.00
2019-04-13T14:29:53.668Z,3628.00
2019-04-13T14:30:53.589Z,3656.00
2019-04-13T14:31:53.506Z,3524.00
2019-04-13T14:32:53.424Z,3364.00
2019-04-13T14:33:53.345Z,3296.00
2019-04-13T14:34:53.281Z,3244.00
2019-04-13T14:35:53.187Z,3408.00
2019-04-13T14:36:53.107Z,3516.00
2019-04-13T14:37:53.028Z,3620.00
2019-04-13T14:38:52.947Z,3744.00
2019-04-13T14:39:52.868Z,3732.00
2019-04-13T14:40:56.090Z,3600.00
2019-04-13T14:41:52.708Z,3600.00
2019-04-13T14:42:52.628Z,3648.00
2019-04-13T14:43:53.092Z,3592.00
2019-04-13T14:44:54.805Z,3592.00
2019-04-13T14:45:52.390Z,3716.00
2019-04-13T14:46:52.310Z,3848.00
2019-04-13T14:47:52.233Z,3736.00
2019-04-13T14:48:52.151Z,3832.00
2019-04-13T14:49:52.071Z,3948.00
2019-04-13T14:50:51.992Z,3916.00
2019-04-13T14:51:52.802Z,3784.00
2019-04-13T14:52:51.832Z,3592.00
2019-04-13T14:53:51.752Z,3664.00
2019-04-13T14:54:52.992Z,3952.00
2019-04-13T14:55:51.593Z,4188.00
2019-04-13T14:56:51.513Z,4440.00
2019-04-13T14:57:51.436Z,4664.00
2019-04-13T14:58:51.354Z,4940.00
2019-04-13T14:59:51.276Z,5248.00
2019-04-13T15:00:51.203Z,5700.00
2019-04-13T15:01:51.115Z,6072.00
2019-04-13T15:02:51.036Z,6460.00
2019-04-13T15:03:50.956Z,6852.00
2019-04-13T15:04:50.875Z,7192.00
2019-04-13T15:05:50.797Z,7380.00
2019-04-13T15:06:52.195Z,7396.00
2019-04-13T15:07:50.637Z,7392.00
2019-04-13T15:08:50.560Z,7504.00
2019-04-13T15:09:52.780Z,7592.00
2019-04-13T15:10:51.119Z,7568.00
2019-04-13T15:11:50.321Z,7420.00
2019-04-13T15:12:50.241Z,7188.00
2019-04-13T15:13:51.421Z,6840.00
2019-04-13T15:14:50.083Z,6716.00
2019-04-13T15:15:50.569Z,6708.00
2019-04-13T15:16:51.049Z,6488.00
2019-04-13T15:17:49.844Z,6164.00
2019-04-13T15:18:50.328Z,5864.00
2019-04-13T15:19:59.865Z,5448.00
2019-04-13T15:20:51.790Z,5100.00
2019-04-13T15:21:50.288Z,4984.00
2019-04-13T15:22:53.799Z,4744.00
2019-04-13T15:23:49.471Z,4480.00
2019-04-13T15:24:52.126Z,4272.00
2019-04-13T15:25:49.213Z,3848.00
2019-04-13T15:26:51.841Z,3640.00
2019-04-13T15:27:53.121Z,3416.00
2019-04-13T15:28:49.468Z,3156.00
2019-04-13T15:29:49.865Z,2964.00
2019-04-13T15:30:51.459Z,2896.00
2019-04-13T15:31:48.967Z,2844.00
2019-04-13T15:32:49.425Z,2796.00
2019-04-13T15:33:53.350Z,2672.00
2019-04-13T15:34:48.953Z,2672.00
2019-04-13T15:35:54.111Z,2580.00
2019-04-13T15:36:48.598Z,2424.00
2019-04-13T15:37:50.035Z,2316.00
2019-04-13T15:38:48.339Z,2264.00
2019-04-13T15:39:48.904Z,2328.00
2019-04-13T15:40:52.707Z,2432.00
2019-04-13T15:41:58.852Z,2556.00
2019-04-13T15:42:55.222Z,2616.00
2019-04-13T15:43:49.811Z,2692.00
2019-04-13T15:44:50.710Z,2792.00
2019-04-13T15:45:50.504Z,2856.00
2019-04-13T15:46:47.985Z,2908.00
2019-04-13T15:47:47.465Z,2932.00
2019-04-13T15:48:47.573Z,2920.00
2019-04-13T15:49:48.284Z,2860.00
2019-04-13T15:50:47.229Z,2788.00
2019-04-13T15:51:47.749Z,2708.00
2019-04-13T15:52:47.066Z,2604.00
2019-04-13T15:53:47.388Z,2416.00
2019-04-13T15:54:47.280Z,2268.00
2019-04-13T15:55:46.826Z,2164.00
2019-04-13T15:56:47.445Z,2008.00
2019-04-13T15:57:47.055Z,1908.00
2019-04-13T15:58:46.711Z,1836.00
2019-04-13T15:59:46.506Z,1784.00
2019-04-13T16:00:46.437Z,1740.00
2019-04-13T16:01:46.787Z,1696.00
2019-04-13T16:02:46.266Z,1644.00
2019-04-13T16:03:46.733Z,1608.00
2019-04-13T16:04:47.235Z,1572.00
2019-04-13T16:05:46.026Z,1576.00
2019-04-13T16:06:46.420Z,1580.00
2019-04-13T16:07:45.865Z,1564.00
2019-04-13T16:08:46.965Z,1552.00
2019-04-13T16:09:45.704Z,1536.00
2019-04-13T16:10:45.627Z,1472.00
2019-04-13T16:11:53.708Z,1400.00
2019-04-13T16:12:45.465Z,1360.00
2019-04-13T16:13:45.510Z,1332.00
2019-04-13T16:14:46.305Z,1320.00
2019-04-13T16:15:45.415Z,1324.00
2019-04-13T16:16:45.787Z,1312.00
2019-04-13T16:17:45.062Z,1284.00
2019-04-13T16:18:45.558Z,1280.00
2019-04-13T16:19:45.878Z,1272.00
2019-04-13T16:20:44.821Z,1256.00
2019-04-13T16:21:45.453Z,1240.00
2019-04-13T16:22:45.124Z,1240.00
2019-04-13T16:23:46.990Z,1248.00
2019-04-13T16:24:44.501Z,1244.00
2019-04-13T16:25:44.595Z,1240.00
2019-04-13T16:26:44.341Z,1236.00
2019-04-13T16:27:44.509Z,1224.00
2019-04-13T16:28:44.179Z,1208.00
2019-04-13T16:29:44.677Z,1188.00
2019-04-13T16:30:44.018Z,1228.00
2019-04-13T16:31:44.040Z,1300.00
2019-04-13T16:32:44.844Z,1356.00
2019-04-13T16:33:43.777Z,1368.00
2019-04-13T16:34:43.696Z,1356.00
2019-04-13T16:35:43.615Z,1332.00
2019-04-13T16:36:44.040Z,1336.00
2019-04-13T16:37:44.169Z,1324.00
2019-04-13T16:38:54.592Z,1308.00
2019-04-13T16:39:43.501Z,1356.00
2019-04-13T16:40:43.677Z,1368.00
2019-04-13T16:41:55.130Z,1332.00
2019-04-13T16:42:43.253Z,1248.00
2019-04-13T16:43:43.083Z,1140.00
2019-04-13T16:44:45.473Z,1052.00
2019-04-13T16:45:42.807Z,992.00
2019-04-13T16:46:42.907Z,948.00
2019-04-13T16:47:43.762Z,924.00
2019-04-13T16:48:43.334Z,900.00
2019-04-13T16:49:42.484Z,872.00
2019-04-13T16:50:42.404Z,836.00
2019-04-13T16:51:43.476Z,808.00
2019-04-13T16:52:43.049Z,780.00
2019-04-13T16:53:43.080Z,740.00
2019-04-13T16:54:50.444Z,700.00
2019-04-13T16:55:41.998Z,652.00
2019-04-13T16:56:41.917Z,620.00
2019-04-13T16:57:43.236Z,592.00
2019-04-13T16:58:42.127Z,564.00
2019-04-13T16:59:42.743Z,536.00
2019-04-13T17:00:42.582Z,508.00
2019-04-13T17:01:41.782Z,496.00
2019-04-13T17:02:42.375Z,484.00
2019-04-13T17:03:41.351Z,480.00
2019-04-13T17:04:42.257Z,480.00
2019-04-13T17:05:41.908Z,476.00
2019-04-13T17:06:41.929Z,468.00
2019-04-13T17:07:41.025Z,452.00
2019-04-13T17:08:41.244Z,440.00
2019-04-13T17:09:41.492Z,424.00
2019-04-13T17:10:42.024Z,404.00
2019-04-13T17:11:41.905Z,380.00
2019-04-13T17:12:44.453Z,364.00
2019-04-13T17:13:41.229Z,344.00
2019-04-13T17:14:41.334Z,328.00
2019-04-13T17:15:40.524Z,312.00
2019-04-13T17:16:40.292Z,304.00
2019-04-13T17:17:40.599Z,300.00
2019-04-13T17:18:40.240Z,292.00
2019-04-13T17:19:40.783Z,292.00
2019-04-13T17:20:39.964Z,284.00
2019-04-13T17:21:40.075Z,284.00
2019-04-13T17:22:39.802Z,284.00
2019-04-13T17:23:39.971Z,284.00
2019-04-13T17:24:40.263Z,284.00
2019-04-13T17:25:39.558Z,288.00
2019-04-13T17:26:40.090Z,292.00
2019-04-13T17:27:40.140Z,296.00
2019-04-13T17:28:39.470Z,300.00
2019-04-13T17:29:39.231Z,304.00
2019-04-13T17:30:41.991Z,308.00
2019-04-13T17:31:39.288Z,308.00
2019-04-13T17:32:39.237Z,308.00
2019-04-13T17:33:39.799Z,300.00
2019-04-13T17:34:38.825Z,296.00
2019-04-13T17:35:38.872Z,288.00
2019-04-13T17:36:39.809Z,276.00
2019-04-13T17:37:39.830Z,264.00
2019-04-13T17:38:39.353Z,244.00
2019-04-13T17:39:38.417Z,228.00
2019-04-13T17:40:38.421Z,204.00
2019-04-13T17:41:38.301Z,180.00
2019-04-13T17:42:43.173Z,168.00
2019-04-13T17:43:38.736Z,148.00
2019-04-13T17:44:38.007Z,136.00
2019-04-13T17:45:37.929Z,128.00
2019-04-13T17:46:38.607Z,124.00
2019-04-13T17:47:37.762Z,120.00
2019-04-13T17:48:37.686Z,108.00
2019-04-13T17:49:38.484Z,100.00
2019-04-13T17:50:38.670Z,92.00
2019-04-13T17:51:37.634Z,84.00
2019-04-13T17:52:38.316Z,80.00
2019-04-13T17:53:37.273Z,72.00
2019-04-13T17:54:37.421Z,64.00
2019-04-13T17:55:37.110Z,60.00
2019-04-13T17:56:37.031Z,64.00
2019-04-13T17:57:37.275Z,68.00
2019-04-13T17:58:37.651Z,60.00
2019-04-13T17:59:36.783Z,60.00
2019-04-13T18:00:37.251Z,56.00
2019-04-13T18:01:37.521Z,52.00
2019-04-13T18:02:36.538Z,44.00
2019-04-13T18:03:36.462Z,36.00
2019-04-13T18:04:37.318Z,28.00
2019-04-13T18:05:36.292Z,24.00
2019-04-13T18:06:36.212Z,20.00
2019-04-13T18:07:37.292Z,16.00
2019-04-13T18:08:43.089Z,16.00
2019-04-13T18:09:36.962Z,12.00
2019-04-13T18:10:35.987Z,12.00
2019-04-13T18:11:36.192Z,12.00
2019-04-13T18:12:43.613Z,12.00
2019-04-13T18:13:45.240Z,12.00
2019-04-13T18:14:36.076Z,12.00
2019-04-13T18:15:36.591Z,8.00
2019-04-13T18:16:35.396Z,8.00
2019-04-13T18:17:36.528Z,8.00
2019-04-13T18:18:35.418Z,8.00
2019-04-13T18:19:35.631Z,8.00
2019-04-13T18:20:36.358Z,4.00
2019-04-13T18:21:34.986Z,4.00
2019-04-13T18:22:37.481Z,8.00
2019-04-13T18:23:36.015Z,4.00
2019-04-13T18:24:34.740Z,4.00
2019-04-13T18:25:42.489Z,0.00
2019-04-13T18:26:35.647Z,4.00
2019-04-13T18:27:34.925Z,4.00
2019-04-13T18:28:35.566Z,0.00
2019-04-13T18:29:34.699Z,0.00
2019-04-13T18:30:37.807Z,0.00
2019-04-13T18:32:34.086Z,4.00
2019-04-13T18:33:34.655Z,4.00
2019-04-13T18:34:34.353Z,0.00
2019-04-13T18:35:33.838Z,0.00
2019-04-13T18:36:34.266Z,0.00
2019-04-13T18:37:33.673Z,0.00
2019-04-13T18:38:33.592Z,0.00
2019-04-13T18:39:34.829Z,0.00
2019-04-13T18:40:34.385Z,0.00
2019-04-13T18:41:33.354Z,0.00
2019-04-13T18:42:33.265Z,0.00
2019-04-13T18:43:33.181Z,0.00
2019-04-13T18:44:34.262Z,0.00
2019-04-13T18:45:33.054Z,0.00
2019-04-13T18:46:34.075Z,0.00
2019-04-13T18:47:32.873Z,0.00
2019-04-13T18:48:33.958Z,0.00
2019-04-13T18:49:32.686Z,0.00
2019-04-13T18:50:33.180Z,0.00
2019-04-13T18:51:33.330Z,0.00
2019-04-13T18:52:32.440Z,0.00
2019-04-13T18:53:32.358Z,0.00
2019-04-13T18:54:32.276Z,0.00
2019-04-13T18:55:33.018Z,0.00
2019-04-13T18:56:33.188Z,0.00
2019-04-13T18:57:32.028Z,0.00
2019-04-13T18:58:31.949Z,0.00
2019-04-13T18:59:31.872Z,0.00
2019-04-13T19:00:32.191Z,0.00
2019-04-13T19:01:32.327Z,0.00
2019-04-13T19:02:31.619Z,0.00
2019-04-13T19:03:31.537Z,0.00
2019-04-13T19:04:31.454Z,0.00
2019-04-13T19:05:31.372Z,0.00
2019-04-13T19:06:31.292Z,0.00
2019-04-13T19:07:31.208Z,0.00
2019-04-13T19:08:31.125Z,0.00
2019-04-13T19:09:31.042Z,0.00
2019-04-13T19:10:31.064Z,0.00
2019-04-13T19:11:30.876Z,0.00
2019-04-13T19:12:30.795Z,0.00
2019-04-13T19:13:30.712Z,0.00
2019-04-13T19:14:30.630Z,0.00
2019-04-13T19:15:30.549Z,0.00
2019-04-13T19:16:30.467Z,0.00
2019-04-13T19:17:30.383Z,0.00
2019-04-13T19:18:30.300Z,0.00
2019-04-13T19:19:30.220Z,0.00
2019-04-13T19:20:30.135Z,0.00
2019-04-13T19:21:30.054Z,0.00
2019-04-13T19:22:29.970Z,0.00
2019-04-13T19:23:29.887Z,0.00
2019-04-13T19:24:29.807Z,0.00
2019-04-13T19:25:29.723Z,0.00
2019-04-13T19:26:29.641Z,0.00
2019-04-13T19:27:29.559Z,0.00
2019-04-13T19:28:29.475Z,0.00
2019-04-13T19:29:29.391Z,0.00